Time;durP1;ratioP1;P1;durP2;ratioP2;P2;SDS_P1;SDS_P2;PMS_P1;PMS_P2;Temp;Humidity;BMP_temperature;BMP_pressure;BME280_temperature;BME280_humidity;BME280_pressure;Samples;Min_cycle;Max_cycle;Signal;HPM_P1;HPM_P2
2021/07/19 00:00:14;;;;;;;6.10;3.73;;;18.10;1.00;;;;;;5007531;28;20658;-73
2021/07/19 00:02:41;;;;;;;13.77;3.73;;;18.10;1.00;;;;;;5007648;28;20221;-73
2021/07/19 00:05:09;;;;;;;8.23;3.80;;;18.10;1.00;;;;;;5007242;28;20454;-73
2021/07/19 00:07:35;;;;;;;4.97;4.00;;;18.20;1.00;;;;;;5006833;28;20473;-73
2021/07/19 00:10:03;;;;;;;9.27;5.43;;;18.10;1.00;;;;;;5009264;28;20906;-73
2021/07/19 00:12:29;;;;;;;5.47;3.77;;;18.20;1.00;;;;;;5004558;28;20466;-73
2021/07/19 00:14:54;;;;;;;8.97;4.37;;;18.20;1.00;;;;;;5014541;28;20446;-73
2021/07/19 00:17:20;;;;;;;9.70;4.00;;;18.10;1.00;;;;;;5008298;28;20195;-73
2021/07/19 00:19:48;;;;;;;6.70;4.27;;;18.10;1.00;;;;;;5007576;28;20183;-73
2021/07/19 00:22:14;;;;;;;5.13;4.40;;;18.20;1.00;;;;;;5003986;28;20442;-73
2021/07/19 00:24:40;;;;;;;10.93;4.60;;;18.10;1.00;;;;;;5005358;28;20869;-73
2021/07/19 00:27:06;;;;;;;5.70;4.17;;;18.00;1.00;;;;;;5009866;28;20438;-73
2021/07/19 00:29:32;;;;;;;7.50;4.17;;;18.00;1.00;;;;;;5009808;28;20493;-73
2021/07/19 00:31:59;;;;;;;10.33;4.77;;;18.00;1.00;;;;;;5015760;28;20661;-73
2021/07/19 00:34:25;;;;;;;6.17;3.97;;;17.90;1.00;;;;;;5009790;28;20504;-73
2021/07/19 00:36:54;;;;;;;8.30;4.03;;;17.90;1.00;;;;;;5006515;28;20279;-73
2021/07/19 00:39:20;;;;;;;5.03;3.70;;;17.90;1.00;;;;;;5009577;28;20194;-73
2021/07/19 00:41:46;;;;;;;8.97;3.90;;;17.90;1.00;;;;;;5011003;28;25057;-73
2021/07/19 00:44:13;;;;;;;8.20;3.93;;;17.90;1.00;;;;;;5008219;28;20450;-73
2021/07/19 00:46:39;;;;;;;5.93;3.60;;;17.70;1.00;;;;;;5012379;28;20655;-73
2021/07/19 00:49:06;;;;;;;5.40;4.27;;;17.60;1.00;;;;;;5014059;28;20462;-73
2021/07/19 00:51:32;;;;;;;5.93;3.80;;;17.50;1.00;;;;;;5006314;28;20554;-73
2021/07/19 00:54:02;;;;;;;8.70;3.60;;;17.40;1.00;;;;;;5007194;28;20474;-73
2021/07/19 00:56:29;;;;;;;6.97;4.00;;;17.40;1.00;;;;;;5026373;28;20450;-73
2021/07/19 00:58:57;;;;;;;4.57;4.07;;;17.30;1.00;;;;;;5003742;28;20749;-73
2021/07/19 01:01:25;;;;;;;8.13;4.10;;;17.20;1.00;;;;;;5006891;28;20454;-73
2021/07/19 01:03:54;;;;;;;7.53;3.67;;;17.10;1.00;;;;;;5008326;28;20470;-73
2021/07/19 01:06:22;;;;;;;6.83;4.53;;;17.10;1.00;;;;;;5006637;28;22158;-73
2021/07/19 01:08:50;;;;;;;7.23;4.30;;;17.10;1.00;;;;;;5004269;28;20456;-73
2021/07/19 01:11:18;;;;;;;10.40;6.33;;;17.00;1.00;;;;;;5003205;28;20535;-73
2021/07/19 01:13:44;;;;;;;4.90;3.53;;;17.00;1.00;;;;;;5005895;28;20446;-73
2021/07/19 01:16:15;;;;;;;6.90;4.77;;;17.00;1.00;;;;;;5007035;28;20489;-73
2021/07/19 01:18:41;;;;;;;9.53;4.00;;;16.80;1.00;;;;;;4996916;28;21737;-73
2021/07/19 01:21:26;;;;;;;5.80;4.50;;;16.80;1.00;;;;;;5008625;28;20807;-73
2021/07/19 01:24:02;;;;;;;6.70;4.60;;;16.90;1.00;;;;;;5006838;28;21111;-73
2021/07/19 01:26:44;;;;;;;6.73;4.70;;;17.00;1.00;;;;;;5006607;28;20446;-73
2021/07/19 01:29:13;;;;;;;5.07;4.57;;;17.10;1.00;;;;;;5018036;28;20446;-72
2021/07/19 01:31:43;;;;;;;5.77;4.30;;;17.00;1.00;;;;;;4995680;28;20488;-73
2021/07/19 01:34:15;;;;;;;9.80;4.80;;;16.90;1.00;;;;;;5007887;28;20462;-73
2021/07/19 01:36:48;;;;;;;12.87;5.27;;;16.90;1.00;;;;;;5013561;28;20446;-73
2021/07/19 01:39:32;;;;;;;5.17;4.20;;;16.80;1.00;;;;;;5008641;28;21050;-73
2021/07/19 01:42:02;;;;;;;4.70;3.70;;;16.80;1.00;;;;;;5024200;28;20442;-73
2021/07/19 01:44:29;;;;;;;7.30;4.30;;;16.80;1.00;;;;;;5008541;28;20454;-73
2021/07/19 01:46:59;;;;;;;10.33;4.60;;;16.70;1.00;;;;;;5009200;28;21134;-73
2021/07/19 01:49:26;;;;;;;5.33;4.30;;;16.70;1.00;;;;;;5006937;28;20531;-73
2021/07/19 01:51:54;;;;;;;4.53;4.07;;;16.70;1.00;;;;;;5006089;28;20470;-73
2021/07/19 01:54:22;;;;;;;6.67;4.53;;;16.80;1.00;;;;;;5007706;28;20446;-73
2021/07/19 01:56:50;;;;;;;7.07;4.80;;;16.90;1.00;;;;;;4997740;28;20957;-73
2021/07/19 01:59:19;;;;;;;9.33;4.37;;;16.80;1.00;;;;;;5010894;28;20534;-73
2021/07/19 02:02:07;;;;;;;9.50;4.70;;;16.90;1.00;;;;;;5014136;28;20458;-72
2021/07/19 02:04:34;;;;;;;8.40;4.73;;;16.90;1.00;;;;;;5007249;28;20926;-73
2021/07/19 02:07:02;;;;;;;9.77;4.63;;;16.90;1.00;;;;;;5012517;28;20445;-72
2021/07/19 02:09:28;;;;;;;9.07;4.70;;;16.90;1.00;;;;;;5017110;28;20967;-73
2021/07/19 02:12:11;;;;;;;5.93;4.30;;;16.70;1.00;;;;;;5008952;28;20461;-73
2021/07/19 02:14:46;;;;;;;5.87;4.00;;;16.50;1.00;;;;;;5021993;28;21406;-73
2021/07/19 02:17:17;;;;;;;5.50;4.60;;;16.40;1.00;;;;;;5007087;28;20503;-73
2021/07/19 02:19:47;;;;;;;7.30;4.50;;;16.40;1.00;;;;;;5005486;28;22094;-73
2021/07/19 02:22:18;;;;;;;8.17;5.00;;;16.40;1.00;;;;;;5009267;28;20438;-73
2021/07/19 02:25:02;;;;;;;8.33;4.63;;;16.50;1.00;;;;;;5020000;28;21095;-73
2021/07/19 02:27:49;;;;;;;5.37;4.43;;;16.40;1.00;;;;;;5006539;28;20553;-73
2021/07/19 02:30:18;;;;;;;6.77;4.53;;;16.40;1.00;;;;;;5008503;28;20454;-73
2021/07/19 02:32:49;;;;;;;7.17;5.27;;;16.30;1.00;;;;;;5008083;28;20489;-73
2021/07/19 02:35:16;;;;;;;6.90;5.37;;;16.40;1.00;;;;;;5003618;28;20450;-73
2021/07/19 02:37:46;;;;;;;7.30;4.70;;;16.40;1.00;;;;;;5005635;28;20914;-73
2021/07/19 02:40:21;;;;;;;6.87;4.97;;;16.60;1.00;;;;;;5007449;28;20521;-73
2021/07/19 02:42:57;;;;;;;7.40;4.60;;;16.60;1.00;;;;;;5024376;28;20472;-73
2021/07/19 02:45:27;;;;;;;8.17;4.70;;;16.70;1.00;;;;;;5006528;28;20457;-72
2021/07/19 02:47:55;;;;;;;9.70;5.43;;;16.80;1.00;;;;;;5005608;28;21608;-73
2021/07/19 02:50:28;;;;;;;9.33;5.00;;;16.80;1.00;;;;;;5009685;28;20894;-73
2021/07/19 02:52:58;;;;;;;8.20;4.90;;;16.70;1.00;;;;;;5021811;28;20469;-73
2021/07/19 02:55:24;;;;;;;6.47;5.30;;;16.70;1.00;;;;;;5013596;28;20475;-73
2021/07/19 02:57:50;;;;;;;7.93;4.70;;;16.70;1.00;;;;;;5009312;28;20909;-72
2021/07/19 03:00:18;;;;;;;9.90;5.17;;;16.80;1.00;;;;;;5006556;28;20447;-72
2021/07/19 03:02:57;;;;;;;5.90;4.50;;;16.70;1.00;;;;;;5022317;28;21079;-73
2021/07/19 03:05:28;;;;;;;8.23;6.10;;;16.60;1.00;;;;;;5005982;28;21047;-72
2021/07/19 03:07:58;;;;;;;16.33;5.37;;;16.70;1.00;;;;;;5005376;28;20449;-73
2021/07/19 03:10:49;;;;;;;9.17;5.07;;;16.60;1.00;;;;;;5007882;28;20463;-73
2021/07/19 03:13:22;;;;;;;6.83;5.40;;;16.70;1.00;;;;;;5005907;28;20446;-72
2021/07/19 03:15:50;;;;;;;9.40;5.90;;;16.60;1.00;;;;;;5003789;28;21018;-73
2021/07/19 03:18:18;;;;;;;6.67;5.30;;;16.60;1.00;;;;;;5010616;28;20549;-73
2021/07/19 03:20:44;;;;;;;7.03;4.93;;;16.60;1.00;;;;;;5007821;28;20462;-72
2021/07/19 03:23:13;;;;;;;9.93;6.10;;;16.60;1.00;;;;;;5006817;28;20957;-72
2021/07/19 03:25:43;;;;;;;11.13;5.73;;;16.60;1.00;;;;;;5011025;28;20797;-73
2021/07/19 03:28:09;;;;;;;8.37;5.40;;;16.50;1.00;;;;;;4998673;28;20527;-72
2021/07/19 03:30:37;;;;;;;10.60;6.10;;;16.50;1.00;;;;;;5024860;28;20470;-72
2021/07/19 03:33:04;;;;;;;8.37;5.60;;;16.50;1.00;;;;;;5001575;28;20466;-73
2021/07/19 03:35:34;;;;;;;6.60;5.03;;;16.40;1.00;;;;;;5004938;28;20873;-73
2021/07/19 03:38:04;;;;;;;12.90;5.83;;;16.40;1.00;;;;;;5008213;28;20558;-74
2021/07/19 03:40:36;;;;;;;8.20;5.07;;;16.30;1.00;;;;;;5005088;28;20450;-73
2021/07/19 03:43:03;;;;;;;9.43;5.67;;;16.30;1.00;;;;;;4996928;28;20830;-72
2021/07/19 03:45:29;;;;;;;12.00;6.73;;;16.30;1.00;;;;;;5003836;28;20827;-72
2021/07/19 03:47:56;;;;;;;9.37;6.47;;;16.30;1.00;;;;;;5004574;28;20497;-72
2021/07/19 03:50:24;;;;;;;9.97;6.70;;;16.20;1.00;;;;;;5021512;28;20470;-72
2021/07/19 03:52:51;;;;;;;11.90;5.93;;;16.20;1.00;;;;;;5004154;28;20445;-72
2021/07/19 03:55:25;;;;;;;8.17;6.40;;;16.20;1.00;;;;;;5007036;28;20535;-72
2021/07/19 03:57:53;;;;;;;13.50;7.13;;;16.30;1.00;;;;;;5009354;28;20793;-72
2021/07/19 04:00:21;;;;;;;12.13;6.73;;;16.30;1.00;;;;;;5007622;28;20457;-72
2021/07/19 04:03:26;;;;;;;10.23;7.27;;;16.30;1.00;;;;;;5015466;28;20454;-73
2021/07/19 04:06:02;;;;;;;12.87;6.63;;;16.30;1.00;;;;;;5015444;28;20454;-72
2021/07/19 04:08:41;;;;;;;11.23;7.27;;;16.20;1.00;;;;;;5009858;28;20481;-72
2021/07/19 04:11:08;;;;;;;8.67;5.93;;;16.30;1.00;;;;;;5012925;28;20960;-72
2021/07/19 04:13:38;;;;;;;11.77;7.53;;;16.30;1.00;;;;;;5032724;28;20446;-73
2021/07/19 04:16:06;;;;;;;9.70;7.10;;;16.30;1.00;;;;;;5015252;28;20449;-72
2021/07/19 04:18:32;;;;;;;9.50;6.80;;;16.20;1.00;;;;;;5016489;28;20469;-72
2021/07/19 04:20:59;;;;;;;8.20;6.67;;;16.20;1.00;;;;;;4999635;28;20967;-72
2021/07/19 04:23:29;;;;;;;11.10;7.47;;;16.20;1.00;;;;;;5017123;28;20446;-72
2021/07/19 04:26:17;;;;;;;12.93;7.70;;;16.30;1.00;;;;;;5004316;28;20447;-72
2021/07/19 04:28:47;;;;;;;12.50;6.97;;;16.30;1.00;;;;;;5014267;28;21416;-72
2021/07/19 04:31:15;;;;;;;12.77;7.60;;;16.30;1.00;;;;;;5010234;28;20493;-72
2021/07/19 04:33:45;;;;;;;15.20;7.90;;;16.30;1.00;;;;;;5025940;28;20490;-72
2021/07/19 04:36:11;;;;;;;11.13;7.10;;;16.40;1.00;;;;;;5036010;28;20795;-72
2021/07/19 04:38:38;;;;;;;9.93;7.70;;;16.50;1.00;;;;;;5012518;28;20737;-72
2021/07/19 04:41:07;;;;;;;11.30;8.23;;;16.50;1.00;;;;;;5004890;28;20852;-72
2021/07/19 04:43:33;;;;;;;11.70;7.30;;;16.50;1.00;;;;;;5010066;28;20450;-72
2021/07/19 04:45:59;;;;;;;12.70;8.17;;;16.50;1.00;;;;;;5017833;28;20198;-72
2021/07/19 04:48:25;;;;;;;9.43;7.00;;;16.50;1.00;;;;;;5019592;28;20207;-72
2021/07/19 04:50:50;;;;;;;12.27;7.47;;;16.40;1.00;;;;;;5012576;28;20207;-72
2021/07/19 04:53:17;;;;;;;10.83;7.50;;;16.50;1.00;;;;;;5010459;28;20449;-72
2021/07/19 04:55:52;;;;;;;8.03;6.77;;;16.50;1.00;;;;;;5016667;28;20642;-72
2021/07/19 04:58:22;;;;;;;12.23;7.80;;;16.50;1.00;;;;;;4987916;28;20439;-72
2021/07/19 05:00:53;;;;;;;10.97;7.70;;;16.50;1.00;;;;;;5010499;28;21354;-72
2021/07/19 05:03:20;;;;;;;14.13;7.90;;;16.60;1.00;;;;;;5018678;28;20847;-72
2021/07/19 05:05:47;;;;;;;11.53;8.00;;;16.70;1.00;;;;;;5008993;28;20453;-72
2021/07/19 05:08:18;;;;;;;12.80;7.70;;;16.60;1.00;;;;;;5011173;28;20923;-72
2021/07/19 05:10:44;;;;;;;10.23;6.57;;;16.70;1.00;;;;;;5005813;28;20553;-72
2021/07/19 05:13:11;;;;;;;10.93;7.80;;;16.70;1.00;;;;;;5007443;28;20453;-72
2021/07/19 05:15:40;;;;;;;12.33;7.77;;;16.80;1.00;;;;;;4999831;28;20430;-72
2021/07/19 05:18:07;;;;;;;12.03;7.67;;;16.80;1.00;;;;;;5016735;28;20773;-72
2021/07/19 05:20:34;;;;;;;13.63;7.53;;;16.80;1.00;;;;;;5023957;28;20438;-72
2021/07/19 05:23:00;;;;;;;10.33;7.53;;;16.80;1.00;;;;;;5000631;28;21344;-72
2021/07/19 05:25:30;;;;;;;13.33;7.73;;;16.90;1.00;;;;;;5002717;28;20454;-72
2021/07/19 05:28:04;;;;;;;10.80;8.03;;;17.00;1.00;;;;;;5012158;28;20244;-72
2021/07/19 05:30:30;;;;;;;15.17;8.43;;;17.00;1.00;;;;;;5009930;28;20453;-72
2021/07/19 05:32:56;;;;;;;13.43;7.67;;;17.00;1.00;;;;;;5020006;28;21238;-72
2021/07/19 05:35:22;;;;;;;11.80;7.50;;;17.00;1.00;;;;;;5005925;28;20180;-72
2021/07/19 05:37:49;;;;;;;12.80;8.13;;;17.10;1.00;;;;;;5007372;28;20453;-73
2021/07/19 05:40:18;;;;;;;10.93;8.20;;;17.10;1.00;;;;;;5016090;28;20433;-72
2021/07/19 05:42:44;;;;;;;15.47;7.17;;;17.10;1.00;;;;;;5014776;28;20962;-72
2021/07/19 05:45:11;;;;;;;13.43;7.97;;;17.00;1.00;;;;;;5012700;28;20438;-72
2021/07/19 05:47:37;;;;;;;15.40;8.10;;;17.10;1.00;;;;;;5010212;28;20803;-72
2021/07/19 05:50:05;;;;;;;16.40;8.90;;;17.20;1.00;;;;;;5002197;28;20462;-72
2021/07/19 05:52:30;;;;;;;12.73;8.37;;;17.20;1.00;;;;;;5003472;28;20480;-73
2021/07/19 05:54:56;;;;;;;12.17;8.43;;;17.20;1.00;;;;;;5010873;28;20936;-72
2021/07/19 05:57:24;;;;;;;16.37;8.70;;;17.20;1.00;;;;;;5019221;28;20648;-72
2021/07/19 05:59:51;;;;;;;11.20;7.67;;;17.30;1.00;;;;;;5011273;28;20594;-72
2021/07/19 06:02:17;;;;;;;13.00;8.07;;;17.30;1.00;;;;;;5005645;28;21240;-72
2021/07/19 06:04:43;;;;;;;14.03;9.80;;;17.40;1.00;;;;;;5020990;28;20503;-72
2021/07/19 06:07:09;;;;;;;12.80;8.70;;;17.40;1.00;;;;;;5016337;28;21104;-73
2021/07/19 06:09:35;;;;;;;17.53;9.73;;;17.30;1.00;;;;;;5014870;28;20444;-72
2021/07/19 06:12:01;;;;;;;13.17;9.23;;;17.40;1.00;;;;;;5013619;28;20995;-72
2021/07/19 06:14:27;;;;;;;10.70;8.03;;;17.40;1.00;;;;;;5006721;28;20241;-72
2021/07/19 06:16:52;;;;;;;15.40;10.80;;;17.50;1.00;;;;;;5012842;28;20192;-72
2021/07/19 06:19:18;;;;;;;13.40;9.53;;;17.50;1.00;;;;;;5011987;28;20243;-72
2021/07/19 06:21:44;;;;;;;13.80;9.07;;;17.50;1.00;;;;;;5016372;28;21208;-72
2021/07/19 06:24:10;;;;;;;16.13;10.63;;;17.60;1.00;;;;;;5013838;28;20454;-72
2021/07/19 06:26:35;;;;;;;12.20;9.53;;;17.50;1.00;;;;;;5010710;28;20195;-72
2021/07/19 06:29:01;;;;;;;13.73;8.63;;;17.50;1.00;;;;;;5013507;28;20192;-72
2021/07/19 06:31:27;;;;;;;13.90;8.63;;;17.40;1.00;;;;;;5015706;28;20246;-72
2021/07/19 06:33:52;;;;;;;15.47;9.50;;;17.50;1.00;;;;;;4984483;28;20200;-72
2021/07/19 06:36:18;;;;;;;19.17;10.63;;;17.50;1.00;;;;;;5010112;28;20294;-72
2021/07/19 06:38:44;;;;;;;14.67;9.67;;;17.50;1.00;;;;;;5009396;28;20218;-72
2021/07/19 06:41:12;;;;;;;15.83;10.00;;;17.50;1.00;;;;;;5026492;28;20732;-72
2021/07/19 06:43:41;;;;;;;15.27;9.80;;;17.50;1.00;;;;;;5011732;28;20665;-72
2021/07/19 06:46:07;;;;;;;12.87;9.23;;;17.60;1.00;;;;;;5008874;28;21110;-73
2021/07/19 06:48:34;;;;;;;14.33;9.23;;;17.70;1.00;;;;;;5012749;28;20477;-73
2021/07/19 06:51:00;;;;;;;14.13;10.00;;;17.80;1.00;;;;;;5008638;28;20474;-73
2021/07/19 06:53:27;;;;;;;16.93;9.33;;;17.80;1.00;;;;;;5006282;28;20438;-73
2021/07/19 06:55:52;;;;;;;13.17;8.97;;;17.70;1.00;;;;;;5007949;28;20528;-72
2021/07/19 06:58:18;;;;;;;15.50;9.43;;;17.70;1.00;;;;;;5011821;28;20456;-73
2021/07/19 07:00:44;;;;;;;12.27;8.97;;;17.80;1.00;;;;;;5015881;28;20183;-72
2021/07/19 07:03:09;;;;;;;13.43;9.80;;;17.90;1.00;;;;;;5012024;28;20187;-74
2021/07/19 07:05:35;;;;;;;16.63;9.90;;;17.90;1.00;;;;;;5017929;28;20232;-73
2021/07/19 07:08:01;;;;;;;15.03;9.80;;;17.90;1.00;;;;;;5001417;28;20590;-73
2021/07/19 07:10:26;;;;;;;13.33;8.47;;;17.90;1.00;;;;;;5009939;28;20211;-73
2021/07/19 07:12:52;;;;;;;11.40;8.83;;;17.90;1.00;;;;;;5012260;28;20238;-73
2021/07/19 07:15:18;;;;;;;10.70;8.60;;;17.90;1.00;;;;;;5002330;28;20215;-73
2021/07/19 07:17:44;;;;;;;14.30;8.73;;;17.90;1.00;;;;;;5008757;28;20211;-72
2021/07/19 07:20:12;;;;;;;15.40;8.53;;;17.90;1.00;;;;;;5010253;28;21782;-73
2021/07/19 07:22:37;;;;;;;12.77;8.20;;;17.90;1.00;;;;;;5005298;28;20655;-72
2021/07/19 07:25:05;;;;;;;13.47;8.50;;;18.00;1.00;;;;;;5015210;28;20483;-72
2021/07/19 07:27:31;;;;;;;14.57;8.50;;;17.90;1.00;;;;;;5007279;28;20179;-72
2021/07/19 07:29:58;;;;;;;12.77;8.30;;;17.80;1.00;;;;;;5006371;28;21071;-72
2021/07/19 07:32:23;;;;;;;12.33;9.00;;;17.80;1.00;;;;;;5013955;28;20545;-73
2021/07/19 07:34:49;;;;;;;14.83;9.47;;;17.90;1.00;;;;;;5007113;28;20309;-72
2021/07/19 07:37:15;;;;;;;11.77;8.70;;;17.90;1.00;;;;;;5019080;28;20199;-72
2021/07/19 07:39:41;;;;;;;12.13;8.20;;;17.90;1.00;;;;;;5008850;28;20238;-72
2021/07/19 07:42:08;;;;;;;15.83;9.17;;;17.80;1.00;;;;;;5016543;28;20195;-73
2021/07/19 07:44:34;;;;;;;17.13;9.57;;;17.90;1.00;;;;;;5015684;28;20682;-73
2021/07/19 07:46:59;;;;;;;12.47;8.93;;;17.80;1.00;;;;;;5011550;28;20496;-73
2021/07/19 07:49:26;;;;;;;16.30;9.20;;;17.80;1.00;;;;;;5008993;28;20287;-73
2021/07/19 07:51:53;;;;;;;14.00;9.40;;;17.80;1.00;;;;;;5006317;28;20219;-72
2021/07/19 07:54:20;;;;;;;13.97;9.53;;;17.90;1.00;;;;;;5001855;28;20474;-73
2021/07/19 07:56:46;;;;;;;15.93;9.80;;;17.90;1.00;;;;;;5007900;28;20535;-72
2021/07/19 07:59:13;;;;;;;14.20;9.53;;;17.80;1.00;;;;;;5012954;28;20451;-72
2021/07/19 08:01:39;;;;;;;16.17;10.73;;;17.80;1.00;;;;;;5015665;28;20225;-73
2021/07/19 08:04:04;;;;;;;15.80;9.43;;;17.80;1.00;;;;;;5010836;28;20553;-73
2021/07/19 08:06:30;;;;;;;13.20;8.60;;;17.90;1.00;;;;;;5014475;28;20195;-73
2021/07/19 08:08:56;;;;;;;11.90;8.50;;;17.90;1.00;;;;;;5009177;28;20192;-72
2021/07/19 08:11:21;;;;;;;12.77;8.40;;;18.00;1.00;;;;;;5019008;28;20265;-72
2021/07/19 08:13:47;;;;;;;17.37;9.57;;;17.90;1.00;;;;;;5001833;28;20709;-73
2021/07/19 08:16:14;;;;;;;18.10;10.03;;;17.90;1.00;;;;;;5001360;28;20202;-72
2021/07/19 08:18:40;;;;;;;13.30;9.60;;;17.90;1.00;;;;;;5013037;28;20816;-73
2021/07/19 08:21:06;;;;;;;18.13;9.53;;;17.80;1.00;;;;;;5005911;28;20219;-72
2021/07/19 08:23:31;;;;;;;13.00;9.00;;;17.90;1.00;;;;;;5005310;28;20180;-73
2021/07/19 08:25:57;;;;;;;12.90;9.77;;;17.90;1.00;;;;;;5011331;28;20586;-73
2021/07/19 08:28:22;;;;;;;13.03;9.50;;;17.90;1.00;;;;;;5012884;28;20291;-73
2021/07/19 08:30:48;;;;;;;15.00;9.30;;;18.00;1.00;;;;;;5012848;28;20294;-73
2021/07/19 08:33:14;;;;;;;16.90;10.60;;;17.90;1.00;;;;;;5011824;28;20190;-73
2021/07/19 08:35:40;;;;;;;20.23;10.63;;;17.90;1.00;;;;;;5009497;28;20198;-73
2021/07/19 08:38:07;;;;;;;14.70;9.57;;;18.00;1.00;;;;;;5014042;28;20246;-72
2021/07/19 08:40:33;;;;;;;16.33;10.63;;;18.10;1.00;;;;;;5008903;28;20847;-72
2021/07/19 08:43:00;;;;;;;20.83;10.40;;;18.10;1.00;;;;;;5002483;28;20438;-73
2021/07/19 08:45:25;;;;;;;18.80;10.30;;;18.10;1.00;;;;;;5010782;28;20669;-73
2021/07/19 08:47:52;;;;;;;13.80;10.60;;;18.10;1.00;;;;;;5008216;28;20708;-73
2021/07/19 08:50:20;;;;;;;19.00;10.23;;;18.10;1.00;;;;;;4993564;28;20757;-73
2021/07/19 08:52:51;;;;;;;13.70;9.00;;;18.10;1.00;;;;;;4996940;28;20676;-72
2021/07/19 08:55:18;;;;;;;14.77;10.60;;;18.00;1.00;;;;;;5000754;28;20462;-73
2021/07/19 08:57:46;;;;;;;12.10;9.80;;;18.00;1.00;;;;;;5005294;28;20453;-72
2021/07/19 09:00:13;;;;;;;15.80;9.47;;;18.10;1.00;;;;;;5008755;28;20827;-73
2021/07/19 09:02:40;;;;;;;16.50;9.67;;;18.00;1.00;;;;;;5008254;28;20446;-73
2021/07/19 09:05:06;;;;;;;13.13;9.80;;;18.00;1.00;;;;;;4994009;28;21077;-73
2021/07/19 09:07:32;;;;;;;15.90;10.13;;;18.10;1.00;;;;;;5015349;28;20224;-72
2021/07/19 09:09:59;;;;;;;13.37;9.60;;;18.00;1.00;;;;;;5001767;28;20453;-73
2021/07/19 09:12:37;;;;;;;14.33;9.43;;;18.00;1.00;;;;;;5005782;28;20471;-73
2021/07/19 09:15:06;;;;;;;13.93;8.97;;;18.00;1.00;;;;;;5008185;28;20991;-73
2021/07/19 09:17:32;;;;;;;12.53;9.50;;;18.00;1.00;;;;;;5008716;28;20434;-73
2021/07/19 09:19:58;;;;;;;13.03;8.67;;;18.00;1.00;;;;;;5022769;28;20473;-72
2021/07/19 09:22:30;;;;;;;14.80;10.33;;;18.00;1.00;;;;;;5003889;28;20209;-73
2021/07/19 09:25:10;;;;;;;11.50;8.43;;;18.00;1.00;;;;;;5008540;28;20201;-73
2021/07/19 09:28:04;;;;;;;13.30;8.70;;;18.10;1.00;;;;;;5011108;28;20488;-73
2021/07/19 09:30:32;;;;;;;13.83;9.53;;;18.10;1.00;;;;;;5008076;28;20470;-72
2021/07/19 09:33:04;;;;;;;13.57;7.90;;;18.10;1.00;;;;;;5006687;28;20450;-73
2021/07/19 09:35:32;;;;;;;15.50;9.50;;;18.20;1.00;;;;;;4999320;28;20577;-73
2021/07/19 09:38:05;;;;;;;13.30;9.47;;;18.30;1.00;;;;;;5009569;28;20450;-73
2021/07/19 09:40:33;;;;;;;11.80;9.13;;;18.40;1.00;;;;;;5011934;28;20543;-73
2021/07/19 09:42:59;;;;;;;11.67;8.73;;;18.40;1.00;;;;;;5010015;28;20438;-73
2021/07/19 09:45:31;;;;;;;16.23;9.60;;;18.50;1.00;;;;;;5030290;28;20445;-73
2021/07/19 09:48:06;;;;;;;17.07;8.63;;;18.60;1.00;;;;;;5010288;28;20576;-73
2021/07/19 09:50:50;;;;;;;12.23;9.40;;;18.70;1.00;;;;;;5005778;28;20527;-73
2021/07/19 09:53:32;;;;;;;18.80;9.70;;;18.70;1.00;;;;;;5012640;28;21109;-73
2021/07/19 09:56:07;;;;;;;13.90;9.97;;;18.70;1.00;;;;;;5007542;28;20470;-73
2021/07/19 09:58:33;;;;;;;13.47;10.10;;;18.50;1.00;;;;;;5008506;28;20446;-73
2021/07/19 10:00:59;;;;;;;15.77;11.30;;;18.40;1.00;;;;;;5012231;28;20488;-73
2021/07/19 10:03:25;;;;;;;14.87;9.70;;;18.30;1.00;;;;;;5008950;28;20302;-73
2021/07/19 10:05:51;;;;;;;12.50;9.50;;;18.40;1.00;;;;;;5009152;28;20708;-72
2021/07/19 10:08:22;;;;;;;17.17;11.40;;;18.40;1.00;;;;;;5015942;28;20446;-73
2021/07/19 10:10:48;;;;;;;13.33;9.77;;;18.40;1.00;;;;;;5014996;28;20223;-73
2021/07/19 10:13:16;;;;;;;13.03;9.00;;;18.40;1.00;;;;;;5009951;28;20537;-73
2021/07/19 10:15:42;;;;;;;14.93;9.53;;;18.50;1.00;;;;;;5014897;28;20176;-73
2021/07/19 10:18:10;;;;;;;14.87;10.53;;;18.50;1.00;;;;;;5011358;28;20446;-73
2021/07/19 10:20:40;;;;;;;15.17;10.00;;;18.60;1.00;;;;;;5010279;28;21017;-73
2021/07/19 10:23:07;;;;;;;15.50;9.70;;;18.50;1.00;;;;;;5012197;28;20503;-73
2021/07/19 10:25:37;;;;;;;16.50;9.90;;;18.40;1.00;;;;;;5011279;28;20472;-73
2021/07/19 10:28:03;;;;;;;17.13;10.67;;;18.50;1.00;;;;;;5014942;28;20484;-73
2021/07/19 10:30:29;;;;;;;16.97;11.60;;;18.60;1.00;;;;;;5012281;28;21137;-73
2021/07/19 10:32:55;;;;;;;13.43;9.30;;;18.50;1.00;;;;;;5014112;28;20449;-73
2021/07/19 10:35:26;;;;;;;12.30;9.67;;;18.50;1.00;;;;;;5013087;28;20764;-73
2021/07/19 10:38:00;;;;;;;13.67;9.90;;;18.50;1.00;;;;;;5010612;28;20504;-73
2021/07/19 10:40:30;;;;;;;15.67;10.27;;;18.50;1.00;;;;;;5018522;28;20468;-73
2021/07/19 10:43:09;;;;;;;16.63;9.50;;;18.50;1.00;;;;;;5011608;28;20469;-73
2021/07/19 10:45:56;;;;;;;11.23;8.93;;;18.40;1.00;;;;;;5012954;28;20442;-73
2021/07/19 10:48:30;;;;;;;15.47;9.90;;;18.50;1.00;;;;;;5016771;28;20430;-73
2021/07/19 10:51:12;;;;;;;15.37;9.80;;;18.40;1.00;;;;;;5010874;28;20482;-73
2021/07/19 10:53:38;;;;;;;14.50;10.30;;;18.50;1.00;;;;;;5009054;28;20451;-73
2021/07/19 10:56:08;;;;;;;15.43;9.90;;;18.50;1.00;;;;;;5015983;28;20465;-73
2021/07/19 10:58:42;;;;;;;13.97;10.80;;;18.50;1.00;;;;;;5008869;28;20191;-73
2021/07/19 11:01:22;;;;;;;15.97;10.23;;;18.50;1.00;;;;;;5008742;28;20815;-72
2021/07/19 11:03:49;;;;;;;15.77;9.80;;;18.50;1.00;;;;;;5006089;28;20517;-72
2021/07/19 11:06:28;;;;;;;16.40;10.20;;;18.50;1.00;;;;;;5009132;28;20570;-73
2021/07/19 11:08:54;;;;;;;15.20;10.50;;;18.60;1.00;;;;;;5009423;28;20575;-73
2021/07/19 11:11:28;;;;;;;17.23;10.93;;;18.60;1.00;;;;;;5009248;28;20495;-73
2021/07/19 11:13:59;;;;;;;16.43;9.90;;;18.70;1.00;;;;;;5006784;28;20646;-73
2021/07/19 11:16:25;;;;;;;15.07;10.77;;;18.70;1.00;;;;;;5011864;28;20944;-73
2021/07/19 11:19:02;;;;;;;15.03;10.93;;;18.80;1.00;;;;;;5009558;28;20545;-73
2021/07/19 11:21:29;;;;;;;19.50;10.50;;;18.90;1.00;;;;;;5008596;28;20478;-73
2021/07/19 11:24:09;;;;;;;20.87;12.37;;;19.00;1.00;;;;;;5007534;28;20452;-73
2021/07/19 11:26:56;;;;;;;15.97;10.97;;;19.00;1.00;;;;;;5010200;28;20459;-73
2021/07/19 11:29:32;;;;;;;18.10;10.30;;;19.10;1.00;;;;;;5008260;28;20995;-73
2021/07/19 11:32:06;;;;;;;17.13;10.53;;;19.30;1.00;;;;;;5009478;28;20788;-73
2021/07/19 11:34:34;;;;;;;15.33;10.60;;;19.50;1.00;;;;;;5010845;28;21325;-73
2021/07/19 11:37:01;;;;;;;14.97;11.73;;;19.50;1.00;;;;;;5011999;28;20888;-73
2021/07/19 11:39:27;;;;;;;16.73;11.17;;;19.50;1.00;;;;;;5011296;28;20521;-73
2021/07/19 11:42:04;;;;;;;22.43;11.87;;;19.50;1.00;;;;;;5009376;28;20461;-75
2021/07/19 11:44:32;;;;;;;14.30;10.13;;;19.30;1.00;;;;;;5011723;28;20451;-75
2021/07/19 11:46:59;;;;;;;14.83;11.03;;;19.40;1.00;;;;;;5012729;28;20959;-75
2021/07/19 11:49:25;;;;;;;16.93;10.57;;;19.30;1.00;;;;;;5015604;28;20899;-73
2021/07/19 11:51:52;;;;;;;15.60;11.67;;;19.50;1.00;;;;;;5007303;28;20757;-73
2021/07/19 11:54:18;;;;;;;23.43;11.90;;;19.50;1.00;;;;;;5010383;28;20483;-73
2021/07/19 11:56:54;;;;;;;17.07;10.57;;;19.40;1.00;;;;;;5007902;28;20469;-73
2021/07/19 11:59:21;;;;;;;21.83;12.23;;;19.30;1.00;;;;;;5005095;28;21310;-73
2021/07/19 12:01:57;;;;;;;16.07;12.23;;;19.30;1.00;;;;;;5005343;28;20449;-73
2021/07/19 12:04:23;;;;;;;17.63;10.20;;;19.30;1.00;;;;;;5007906;28;20454;-73
2021/07/19 12:06:52;;;;;;;18.33;11.47;;;19.30;1.00;;;;;;5007847;28;20836;-73
2021/07/19 12:09:20;;;;;;;17.37;11.73;;;19.30;1.00;;;;;;5015314;28;20664;-73
2021/07/19 12:11:55;;;;;;;26.93;11.50;;;19.30;1.00;;;;;;5009347;28;20581;-73
2021/07/19 12:14:21;;;;;;;17.03;12.17;;;19.20;1.00;;;;;;5001084;28;21149;-73
2021/07/19 12:16:46;;;;;;;22.03;11.07;;;19.20;1.00;;;;;;5010922;28;20509;-73
2021/07/19 12:19:17;;;;;;;17.73;11.43;;;19.30;1.00;;;;;;5010497;28;20674;-73
2021/07/19 12:21:50;;;;;;;19.07;12.57;;;19.50;1.00;;;;;;5003324;28;20681;-73
2021/07/19 12:24:17;;;;;;;19.40;11.87;;;19.50;1.00;;;;;;5011083;28;20480;-73
2021/07/19 12:26:46;;;;;;;17.70;11.30;;;19.70;1.00;;;;;;5006921;28;20492;-73
2021/07/19 12:29:23;;;;;;;19.07;12.30;;;19.60;1.00;;;;;;5008190;28;20466;-73
2021/07/19 12:31:52;;;;;;;19.50;12.03;;;19.60;1.00;;;;;;5010697;28;20959;-73
2021/07/19 12:34:24;;;;;;;17.70;11.10;;;19.60;1.00;;;;;;5015250;28;20749;-73
2021/07/19 12:36:53;;;;;;;17.00;12.27;;;19.60;1.00;;;;;;5011834;28;20469;-73
2021/07/19 12:39:28;;;;;;;16.73;11.67;;;19.70;1.00;;;;;;5008349;28;20473;-73
2021/07/19 12:41:55;;;;;;;17.83;11.60;;;19.90;1.00;;;;;;5011552;28;20791;-73
2021/07/19 12:44:25;;;;;;;15.03;11.60;;;20.10;1.00;;;;;;5009504;28;20764;-73
2021/07/19 12:46:52;;;;;;;21.63;12.00;;;20.10;1.00;;;;;;5010210;28;20563;-73
2021/07/19 12:49:35;;;;;;;18.60;12.37;;;20.00;1.00;;;;;;5015839;28;20454;-73
2021/07/19 12:52:01;;;;;;;16.37;12.20;;;20.00;1.00;;;;;;5007187;28;20559;-73
2021/07/19 12:54:28;;;;;;;17.37;11.70;;;20.00;1.00;;;;;;5008027;28;21027;-73
2021/07/19 12:56:57;;;;;;;17.57;11.50;;;20.10;1.00;;;;;;5007651;28;20194;-74